createdAt,value
2018-12-07T00:02:26.598Z,10.90
2018-12-07T00:04:54.884Z,10.80
2018-12-07T00:07:23.169Z,10.90
2018-12-07T00:09:51.360Z,10.90
2018-12-07T00:12:19.543Z,10.90
2018-12-07T00:14:47.756Z,10.90
2018-12-07T00:17:16.052Z,10.90
2018-12-07T00:19:47.893Z,10.80
2018-12-07T00:22:14.591Z,10.90
2018-12-07T00:24:43.173Z,10.90
2018-12-07T00:27:11.417Z,10.90
2018-12-07T00:29:39.726Z,10.90
2018-12-07T00:32:08.288Z,10.90
2018-12-07T00:34:36.503Z,10.90
2018-12-07T00:37:04.836Z,10.90
2018-12-07T00:39:33.111Z,10.90
2018-12-07T00:42:01.295Z,11.00
2018-12-07T00:44:29.475Z,11.00
2018-12-07T00:46:57.630Z,11.00
2018-12-07T00:49:25.925Z,11.10
2018-12-07T00:51:54.111Z,11.00
2018-12-07T00:54:22.342Z,11.00
2018-12-07T00:56:50.591Z,11.00
2018-12-07T00:59:18.822Z,11.00
2018-12-07T01:01:46.961Z,11.00
2018-12-07T01:04:15.158Z,11.00
2018-12-07T01:06:43.337Z,11.00
2018-12-07T01:09:11.570Z,11.00
2018-12-07T01:11:39.863Z,11.00
2018-12-07T01:14:08.143Z,11.00
2018-12-07T01:16:36.382Z,11.00
2018-12-07T01:19:04.725Z,11.00
2018-12-07T01:21:33.016Z,11.00
2018-12-07T01:24:01.160Z,10.90
2018-12-07T01:26:29.381Z,10.90
2018-12-07T01:28:57.633Z,10.90
2018-12-07T01:31:25.803Z,10.90
2018-12-07T01:33:54.079Z,10.90
2018-12-07T01:36:22.368Z,10.90
2018-12-07T01:38:50.745Z,10.90
2018-12-07T01:41:19.011Z,10.90
2018-12-07T01:43:47.257Z,10.80
2018-12-07T01:46:15.676Z,10.80
2018-12-07T01:48:44.040Z,10.80
2018-12-07T01:51:12.244Z,10.80
2018-12-07T01:56:37.547Z,10.80
2018-12-07T01:59:05.736Z,10.70
2018-12-07T02:01:34.164Z,10.80
2018-12-07T02:04:02.348Z,10.80
2018-12-07T02:06:30.505Z,10.70
2018-12-07T02:08:58.750Z,10.70
2018-12-07T02:11:26.920Z,10.70
2018-12-07T02:13:55.158Z,10.70
2018-12-07T02:16:23.392Z,10.70
2018-12-07T02:18:51.674Z,10.80
2018-12-07T02:23:48.825Z,10.70
2018-12-07T02:26:17.068Z,10.70
2018-12-07T02:28:45.333Z,10.70
2018-12-07T02:31:13.523Z,10.70
2018-12-07T02:33:41.664Z,10.70
2018-12-07T02:36:09.920Z,10.70
2018-12-07T02:38:38.458Z,10.70
2018-12-07T02:41:06.731Z,10.70
2018-12-07T02:43:35.061Z,10.80
2018-12-07T02:46:03.239Z,10.70
2018-12-07T02:48:31.620Z,10.70
2018-12-07T02:50:59.900Z,10.70
2018-12-07T02:53:28.090Z,10.70
2018-12-07T02:55:56.422Z,10.70
2018-12-07T02:58:24.596Z,10.60
2018-12-07T03:00:52.785Z,10.60
2018-12-07T03:03:21.028Z,10.60
2018-12-07T03:05:49.173Z,10.60
2018-12-07T03:08:17.574Z,10.70
2018-12-07T03:10:45.955Z,10.70
2018-12-07T03:13:14.231Z,10.60
2018-12-07T03:15:42.389Z,10.60
2018-12-07T03:18:18.316Z,10.60
2018-12-07T03:20:47.225Z,10.70
2018-12-07T03:23:15.403Z,10.60
2018-12-07T03:25:43.701Z,10.50
2018-12-07T03:28:11.886Z,10.60
2018-12-07T03:30:40.086Z,10.60
2018-12-07T03:33:08.406Z,10.60
2018-12-07T03:35:36.586Z,10.60
2018-12-07T03:38:04.955Z,10.60
2018-12-07T03:40:33.537Z,10.60
2018-12-07T03:43:01.745Z,10.60
2018-12-07T03:45:30.127Z,10.60
2018-12-07T03:47:58.427Z,10.60
2018-12-07T03:50:26.602Z,10.60
2018-12-07T03:52:54.894Z,10.70
2018-12-07T03:55:23.202Z,10.60
2018-12-07T03:57:51.498Z,10.60
2018-12-07T04:00:19.755Z,10.60
2018-12-07T04:02:47.954Z,10.60
2018-12-07T04:05:16.234Z,10.60
2018-12-07T04:07:44.506Z,10.60
2018-12-07T04:10:12.740Z,10.70
2018-12-07T04:12:40.985Z,10.70
2018-12-07T04:15:09.201Z,10.70
2018-12-07T04:17:37.396Z,10.60
2018-12-07T04:20:06.022Z,10.70
2018-12-07T04:22:34.354Z,10.60
2018-12-07T04:25:02.569Z,10.60
2018-12-07T04:27:31.225Z,10.60
2018-12-07T04:30:11.511Z,10.60
2018-12-07T04:32:39.664Z,10.60
2018-12-07T04:35:08.001Z,10.60
2018-12-07T04:37:36.219Z,10.60
2018-12-07T04:40:05.047Z,10.60
2018-12-07T04:42:33.197Z,10.50
2018-12-07T04:45:01.429Z,10.50
2018-12-07T04:47:29.845Z,10.50
2018-12-07T04:49:58.158Z,10.50
2018-12-07T04:52:26.329Z,10.60
2018-12-07T04:54:54.524Z,10.70
2018-12-07T04:57:22.690Z,10.60
2018-12-07T04:59:50.892Z,10.60
2018-12-07T05:02:19.068Z,10.50
2018-12-07T05:04:47.309Z,10.60
2018-12-07T05:07:15.465Z,10.60
2018-12-07T05:09:43.626Z,10.50
2018-12-07T05:12:11.859Z,10.60
2018-12-07T05:14:40.095Z,10.60
2018-12-07T05:17:08.327Z,10.60
2018-12-07T05:19:36.625Z,10.60
2018-12-07T05:22:04.831Z,10.60
2018-12-07T05:24:34.653Z,10.70
2018-12-07T05:27:03.206Z,10.60
2018-12-07T05:29:31.674Z,10.50
2018-12-07T05:31:59.961Z,10.60
2018-12-07T05:34:28.145Z,10.60
2018-12-07T05:36:56.339Z,10.60
2018-12-07T05:39:24.581Z,10.60
2018-12-07T05:41:52.774Z,10.70
2018-12-07T05:44:20.967Z,10.60
2018-12-07T05:46:49.410Z,10.60
2018-12-07T05:49:17.549Z,10.60
2018-12-07T05:51:45.776Z,10.60
2018-12-07T05:54:14.237Z,10.70
2018-12-07T05:56:42.567Z,10.60
2018-12-07T05:59:10.720Z,10.70
2018-12-07T06:01:38.903Z,10.70
2018-12-07T06:04:07.242Z,10.70
2018-12-07T06:06:35.443Z,10.60
2018-12-07T06:09:05.600Z,10.60
2018-12-07T06:11:33.771Z,10.70
2018-12-07T06:14:02.080Z,10.70
2018-12-07T06:16:30.366Z,10.70
2018-12-07T06:18:58.562Z,10.70
2018-12-07T06:21:26.754Z,10.70
2018-12-07T06:23:54.925Z,10.70
2018-12-07T06:26:23.119Z,10.70
2018-12-07T06:28:51.615Z,10.70
2018-12-07T06:31:19.888Z,10.70
2018-12-07T06:33:48.051Z,10.70
2018-12-07T06:36:16.373Z,10.70
2018-12-07T06:38:46.409Z,10.70
2018-12-07T06:41:14.912Z,10.70
2018-12-07T06:43:43.261Z,10.90
2018-12-07T06:46:11.532Z,10.90
2018-12-07T06:48:39.779Z,10.90
2018-12-07T06:51:08.033Z,10.80
2018-12-07T06:53:36.213Z,10.80
2018-12-07T06:56:04.566Z,10.80
2018-12-07T06:58:32.739Z,10.80
2018-12-07T07:01:01.091Z,10.80
2018-12-07T07:03:29.453Z,10.80
2018-12-07T07:05:57.671Z,10.80
2018-12-07T07:08:25.830Z,10.80
2018-12-07T07:10:54.290Z,10.90
2018-12-07T07:13:22.476Z,10.90
2018-12-07T07:15:50.744Z,10.90
2018-12-07T07:18:18.946Z,10.90
2018-12-07T07:20:47.194Z,11.00
2018-12-07T07:23:15.367Z,10.90
2018-12-07T07:25:43.620Z,10.90
2018-12-07T07:28:11.793Z,10.90
2018-12-07T07:30:39.982Z,10.90
2018-12-07T07:33:08.128Z,11.00
2018-12-07T07:35:36.386Z,11.00
2018-12-07T07:38:04.652Z,11.10
2018-12-07T07:40:32.828Z,11.00
2018-12-07T07:43:01.196Z,11.10
2018-12-07T07:45:29.355Z,11.10
2018-12-07T07:47:57.556Z,11.10
2018-12-07T07:50:25.790Z,11.20
2018-12-07T07:52:54.178Z,11.10
2018-12-07T07:55:22.386Z,11.10
2018-12-07T07:57:50.571Z,11.10
2018-12-07T08:00:18.858Z,11.10
2018-12-07T08:02:47.086Z,11.10
2018-12-07T08:05:15.252Z,11.10
2018-12-07T08:07:43.464Z,11.10
2018-12-07T08:10:11.602Z,11.10
2018-12-07T08:12:39.826Z,11.20
2018-12-07T08:15:08.215Z,11.20
2018-12-07T08:17:36.374Z,11.30
2018-12-07T08:20:05.627Z,11.20
2018-12-07T08:22:33.850Z,11.20
2018-12-07T08:25:02.092Z,11.20
2018-12-07T08:27:30.468Z,11.30
2018-12-07T08:29:58.633Z,11.30
2018-12-07T08:32:26.789Z,11.30
2018-12-07T08:34:54.997Z,11.30
2018-12-07T08:37:23.205Z,11.40
2018-12-07T08:39:51.931Z,11.40
2018-12-07T08:42:20.109Z,11.40
2018-12-07T08:44:50.285Z,11.40
2018-12-07T08:47:18.675Z,11.40
2018-12-07T08:49:52.657Z,11.50
2018-12-07T08:52:20.842Z,11.40
2018-12-07T08:54:49.104Z,11.50
2018-12-07T08:57:17.418Z,11.50
2018-12-07T08:59:45.612Z,11.50
2018-12-07T09:02:13.812Z,11.50
2018-12-07T09:04:41.966Z,11.50
2018-12-07T09:07:10.103Z,11.50
2018-12-07T09:09:38.317Z,11.60
2018-12-07T09:12:06.523Z,11.50
2018-12-07T09:14:34.735Z,11.60
2018-12-07T09:17:02.928Z,11.50
2018-12-07T09:19:31.213Z,11.50
2018-12-07T09:21:59.389Z,11.60
2018-12-07T09:24:27.701Z,11.60
2018-12-07T09:26:55.970Z,11.60
2018-12-07T09:29:24.143Z,11.60
2018-12-07T09:31:52.522Z,11.60
2018-12-07T09:34:20.802Z,11.50
2018-12-07T09:36:49.079Z,11.60
2018-12-07T09:39:17.252Z,11.60
2018-12-07T09:41:45.538Z,11.60
2018-12-07T09:44:13.913Z,11.60
2018-12-07T09:46:42.142Z,11.70
2018-12-07T09:49:10.437Z,11.70
2018-12-07T09:51:38.599Z,11.70
2018-12-07T09:54:06.825Z,11.60
2018-12-07T09:56:35.081Z,11.70
2018-12-07T09:59:03.359Z,11.60
2018-12-07T10:01:31.526Z,11.60
2018-12-07T10:03:59.690Z,11.60
2018-12-07T10:06:27.928Z,11.70
2018-12-07T10:08:58.113Z,11.60
2018-12-07T10:11:26.585Z,11.70
2018-12-07T10:13:54.743Z,11.70
2018-12-07T10:16:22.918Z,11.70
2018-12-07T10:18:51.223Z,11.70
2018-12-07T10:21:19.440Z,11.80
2018-12-07T10:23:47.755Z,11.70
2018-12-07T10:26:15.926Z,11.70
2018-12-07T10:28:44.101Z,11.70
2018-12-07T10:31:12.320Z,11.70
2018-12-07T10:33:40.465Z,11.70
2018-12-07T10:36:08.589Z,11.70
2018-12-07T10:38:36.827Z,11.70
2018-12-07T10:41:05.105Z,11.70
2018-12-07T10:43:33.335Z,11.80
2018-12-07T10:46:01.664Z,11.70
2018-12-07T10:48:29.822Z,11.70
2018-12-07T10:50:58.067Z,11.70
2018-12-07T10:53:26.226Z,11.80
2018-12-07T10:55:54.576Z,11.80
2018-12-07T10:58:23.062Z,11.70
2018-12-07T11:00:56.940Z,11.80
2018-12-07T11:03:30.924Z,11.80
2018-12-07T11:06:04.915Z,11.70
2018-12-07T11:08:38.866Z,11.70
2018-12-07T11:11:13.507Z,11.70
2018-12-07T11:13:47.808Z,11.70
2018-12-07T11:22:33.563Z,11.70
2018-12-07T11:25:07.462Z,11.70
2018-12-07T11:27:41.474Z,11.70
2018-12-07T11:30:15.541Z,11.70
2018-12-07T11:32:49.582Z,11.70
2018-12-07T11:35:19.818Z,11.70
2018-12-07T11:37:48.086Z,11.70
2018-12-07T11:40:16.215Z,11.70
2018-12-07T11:42:44.424Z,11.70
2018-12-07T11:45:12.595Z,11.70
2018-12-07T11:47:40.785Z,11.70
2018-12-07T11:50:09.870Z,11.80
2018-12-07T11:52:38.156Z,11.70
2018-12-07T11:55:06.700Z,11.70
2018-12-07T11:57:34.914Z,11.70
2018-12-07T12:00:04.536Z,11.80
2018-12-07T12:02:32.902Z,11.80
2018-12-07T12:05:01.179Z,11.80
2018-12-07T12:07:29.362Z,11.70
2018-12-07T12:09:57.551Z,11.70
2018-12-07T12:12:25.765Z,11.70
2018-12-07T12:14:54.076Z,11.70
2018-12-07T12:17:22.367Z,11.70
2018-12-07T12:19:50.524Z,11.70
2018-12-07T12:22:18.696Z,11.70
2018-12-07T12:24:46.852Z,11.70
2018-12-07T12:27:15.251Z,11.70
2018-12-07T12:29:43.545Z,11.70
2018-12-07T12:32:11.685Z,11.70
2018-12-07T12:34:40.093Z,11.70
2018-12-07T12:37:08.311Z,11.70
2018-12-07T12:39:36.507Z,11.70
2018-12-07T12:42:04.826Z,11.60
2018-12-07T12:44:33.087Z,11.60
2018-12-07T12:47:01.261Z,11.60
2018-12-07T12:49:29.448Z,11.70
2018-12-07T12:51:57.678Z,11.60
2018-12-07T12:54:25.899Z,11.70
2018-12-07T12:56:54.027Z,11.70
2018-12-07T12:59:22.300Z,11.60
2018-12-07T13:01:52.392Z,11.70
2018-12-07T13:04:20.947Z,11.70
2018-12-07T13:06:49.123Z,11.70
2018-12-07T13:09:17.334Z,11.70
2018-12-07T13:11:45.554Z,11.70
2018-12-07T13:14:14.247Z,11.70
2018-12-07T13:16:42.513Z,11.70
2018-12-07T13:19:10.718Z,11.70
2018-12-07T13:21:38.882Z,11.70
2018-12-07T13:24:07.140Z,11.70
2018-12-07T13:26:35.351Z,11.70
2018-12-07T13:29:03.740Z,11.70
2018-12-07T13:31:31.888Z,11.70
2018-12-07T13:34:00.152Z,11.70
2018-12-07T13:36:28.332Z,11.70
2018-12-07T13:38:56.579Z,11.70
2018-12-07T13:41:24.803Z,11.60
2018-12-07T13:43:53.250Z,11.70
2018-12-07T13:46:21.636Z,11.70
2018-12-07T13:48:50.231Z,11.70
2018-12-07T13:51:18.604Z,11.70
2018-12-07T13:53:46.938Z,11.70
2018-12-07T13:56:16.308Z,11.70
2018-12-07T13:58:44.953Z,11.70
2018-12-07T14:01:13.209Z,11.70
2018-12-07T14:03:41.788Z,11.70
2018-12-07T14:06:10.225Z,11.60
2018-12-07T14:08:38.744Z,11.60
2018-12-07T14:11:07.016Z,11.60
2018-12-07T14:13:35.369Z,11.60
2018-12-07T14:16:03.668Z,11.60
2018-12-07T14:18:32.042Z,11.60
2018-12-07T14:21:00.653Z,11.60
2018-12-07T14:23:29.034Z,11.60
2018-12-07T14:25:58.382Z,11.60
2018-12-07T14:28:27.006Z,11.60
2018-12-07T14:30:55.502Z,11.60
2018-12-07T14:33:23.855Z,11.60
2018-12-07T14:35:52.762Z,11.60
2018-12-07T14:38:21.253Z,11.60
2018-12-07T14:40:49.678Z,11.60
2018-12-07T14:43:17.984Z,11.60
2018-12-07T14:45:46.292Z,11.70
2018-12-07T14:48:14.618Z,11.60
2018-12-07T14:50:43.314Z,11.70
2018-12-07T14:53:11.693Z,11.60
2018-12-07T14:55:40.521Z,11.60
2018-12-07T14:58:08.981Z,11.60
2018-12-07T15:00:37.227Z,11.60
2018-12-07T15:03:05.761Z,11.60
2018-12-07T15:05:34.148Z,11.60
2018-12-07T15:08:02.886Z,11.50
2018-12-07T15:10:31.346Z,11.50
2018-12-07T15:12:59.644Z,11.50
2018-12-07T15:15:27.879Z,11.60
2018-12-07T15:17:56.618Z,11.60
2018-12-07T15:20:25.015Z,11.60
2018-12-07T15:22:53.374Z,11.60
2018-12-07T15:25:21.849Z,11.50
2018-12-07T15:27:50.352Z,11.50
2018-12-07T15:30:19.268Z,11.50
2018-12-07T15:32:47.980Z,11.60
2018-12-07T15:35:16.380Z,11.50
2018-12-07T15:37:44.985Z,11.40
2018-12-07T15:40:13.722Z,11.40
2018-12-07T15:42:42.195Z,11.50
2018-12-07T15:45:10.558Z,11.40
2018-12-07T15:47:39.324Z,11.40
2018-12-07T15:50:07.994Z,11.40
2018-12-07T15:52:36.317Z,11.40
2018-12-07T15:55:05.801Z,11.40
2018-12-07T15:57:34.122Z,11.50
2018-12-07T16:00:02.669Z,11.50
2018-12-07T16:02:31.149Z,11.50
2018-12-07T16:04:59.450Z,11.40
2018-12-07T16:07:27.773Z,11.40
2018-12-07T16:09:56.141Z,11.40
2018-12-07T16:12:24.512Z,11.40
2018-12-07T16:14:52.897Z,11.40
2018-12-07T16:17:21.205Z,11.40
2018-12-07T16:19:49.755Z,11.40
2018-12-07T16:22:18.392Z,11.40
2018-12-07T16:24:46.878Z,11.40
2018-12-07T16:27:15.325Z,11.40
2018-12-07T16:29:43.904Z,11.40
2018-12-07T16:32:12.559Z,11.40
2018-12-07T16:34:40.957Z,11.30
2018-12-07T16:37:09.344Z,11.30
2018-12-07T16:39:37.743Z,11.40
2018-12-07T16:42:06.243Z,11.40
2018-12-07T16:44:34.770Z,11.40
2018-12-07T16:47:03.046Z,11.40
2018-12-07T16:49:31.316Z,11.40
2018-12-07T16:51:59.498Z,11.40
2018-12-07T16:54:27.912Z,11.30
2018-12-07T16:56:56.274Z,11.40
2018-12-07T16:59:24.571Z,11.40
2018-12-07T17:01:53.133Z,11.30
2018-12-07T17:04:21.527Z,11.20
2018-12-07T17:06:49.719Z,11.30
2018-12-07T17:09:18.045Z,11.30
2018-12-07T17:11:46.686Z,11.30
2018-12-07T17:14:15.074Z,11.30
2018-12-07T17:16:45.156Z,11.30
2018-12-07T17:19:13.814Z,11.30
2018-12-07T17:21:42.458Z,11.30
2018-12-07T17:24:10.843Z,11.30
2018-12-07T17:26:39.099Z,11.30
2018-12-07T17:29:07.443Z,11.30
2018-12-07T17:31:36.071Z,11.30
2018-12-07T17:34:04.841Z,11.30
2018-12-07T17:36:33.388Z,11.30
2018-12-07T17:39:01.858Z,11.30
2018-12-07T17:41:30.253Z,11.30
2018-12-07T17:43:58.472Z,11.30
2018-12-07T17:46:26.965Z,11.30
2018-12-07T17:48:55.625Z,11.30
2018-12-07T17:51:24.016Z,11.20
2018-12-07T17:53:52.440Z,11.30
2018-12-07T17:56:20.738Z,11.20
2018-12-07T17:58:48.969Z,11.20
2018-12-07T18:01:17.179Z,11.20
2018-12-07T18:03:46.672Z,11.10
2018-12-07T18:06:15.759Z,11.10
2018-12-07T18:08:44.283Z,11.20
2018-12-07T18:11:12.751Z,11.20
2018-12-07T18:13:40.969Z,11.10
2018-12-07T18:16:09.148Z,11.10
2018-12-07T18:18:37.395Z,11.10
2018-12-07T18:21:05.598Z,11.10
2018-12-07T18:23:33.868Z,11.10
2018-12-07T18:26:02.400Z,11.10
2018-12-07T18:28:31.524Z,11.00
2018-12-07T18:31:00.084Z,11.10
2018-12-07T18:33:28.387Z,11.10
2018-12-07T18:35:56.713Z,11.10
2018-12-07T18:38:25.089Z,11.10
2018-12-07T18:40:53.714Z,11.10
2018-12-07T18:43:21.990Z,11.10
2018-12-07T18:45:50.508Z,11.10
2018-12-07T18:48:18.874Z,11.10
2018-12-07T18:50:47.227Z,11.10
2018-12-07T18:53:15.733Z,11.00
2018-12-07T18:55:43.997Z,11.00
2018-12-07T18:58:12.277Z,11.00
2018-12-07T19:00:40.764Z,11.00
2018-12-07T19:03:09.195Z,11.00
2018-12-07T19:05:38.077Z,11.00
2018-12-07T19:08:06.823Z,11.00
2018-12-07T19:10:35.478Z,11.00
2018-12-07T19:13:04.216Z,11.00
2018-12-07T19:15:32.889Z,11.00
2018-12-07T19:18:01.520Z,11.00
2018-12-07T19:20:29.933Z,11.00
2018-12-07T19:22:58.465Z,11.00
2018-12-07T19:25:26.831Z,11.00
2018-12-07T19:27:55.340Z,11.00
2018-12-07T19:30:23.889Z,10.90
2018-12-07T19:32:52.458Z,11.00
2018-12-07T19:35:20.913Z,11.00
2018-12-07T19:37:49.723Z,11.00
2018-12-07T19:40:18.278Z,11.00
2018-12-07T19:42:48.505Z,10.90
2018-12-07T19:45:17.026Z,11.00
2018-12-07T19:47:45.453Z,10.90
2018-12-07T19:50:15.588Z,11.00
2018-12-07T19:52:44.473Z,11.00
2018-12-07T19:55:13.018Z,10.90
2018-12-07T19:57:41.410Z,10.90
2018-12-07T20:00:10.121Z,10.90
2018-12-07T20:02:38.375Z,10.90
2018-12-07T20:05:07.221Z,10.90
2018-12-07T20:07:35.807Z,10.90
2018-12-07T20:10:05.530Z,10.90
2018-12-07T20:12:33.887Z,10.90
2018-12-07T20:15:02.299Z,10.90
2018-12-07T20:17:30.710Z,10.90
2018-12-07T20:19:59.093Z,10.80
2018-12-07T20:22:27.380Z,10.90
2018-12-07T20:24:55.797Z,10.80
2018-12-07T20:27:24.382Z,10.90
2018-12-07T20:29:52.842Z,10.90
2018-12-07T20:32:21.378Z,10.90
2018-12-07T20:34:49.818Z,10.90
2018-12-07T20:37:18.232Z,10.80
2018-12-07T20:39:46.745Z,10.80
2018-12-07T20:42:15.203Z,10.60
2018-12-07T20:44:44.050Z,10.40
2018-12-07T20:47:12.406Z,10.10
2018-12-07T20:49:40.795Z,9.90
2018-12-07T20:52:09.115Z,9.80
2018-12-07T20:54:37.459Z,9.60
2018-12-07T20:57:05.642Z,9.50
2018-12-07T20:59:34.185Z,9.40
2018-12-07T21:02:02.642Z,9.30
2018-12-07T21:04:32.933Z,9.30
2018-12-07T21:17:14.241Z,8.80
2018-12-07T21:19:46.774Z,8.80
2018-12-07T21:22:15.294Z,8.70
2018-12-07T21:24:43.874Z,8.70
2018-12-07T21:27:12.262Z,8.70
2018-12-07T21:29:41.188Z,8.70
2018-12-07T21:32:12.371Z,8.60
2018-12-07T21:34:55.321Z,8.60
2018-12-07T21:37:23.960Z,8.50
2018-12-07T21:39:53.490Z,8.50
2018-12-07T21:42:21.903Z,8.50
2018-12-07T21:44:50.430Z,8.50
2018-12-07T21:47:22.572Z,8.40
2018-12-07T21:49:50.932Z,8.50
2018-12-07T21:52:19.149Z,8.40
2018-12-07T21:54:47.665Z,8.40
2018-12-07T21:57:16.553Z,8.40
2018-12-07T21:59:46.430Z,8.30
2018-12-07T22:02:15.015Z,8.30
2018-12-07T22:04:43.242Z,8.30
2018-12-07T22:07:11.625Z,8.30
2018-12-07T22:09:39.861Z,8.20
2018-12-07T22:12:08.404Z,8.20
2018-12-07T22:14:36.690Z,8.20
2018-12-07T22:17:04.948Z,8.10
2018-12-07T22:19:33.357Z,8.10
2018-12-07T22:22:01.750Z,8.10
2018-12-07T22:24:30.077Z,8.10
2018-12-07T22:26:58.353Z,8.00
2018-12-07T22:29:26.653Z,8.00
2018-12-07T22:31:55.442Z,7.90
2018-12-07T22:34:23.816Z,8.00
2018-12-07T22:36:52.389Z,8.00
2018-12-07T22:39:20.882Z,8.00
2018-12-07T22:41:51.144Z,8.00
2018-12-07T22:44:19.830Z,7.90
2018-12-07T22:46:48.163Z,7.90
2018-12-07T22:49:16.405Z,7.80
2018-12-07T22:51:44.741Z,7.90
2018-12-07T22:54:13.113Z,7.80
2018-12-07T22:56:42.243Z,7.80
2018-12-07T22:59:10.434Z,7.80
2018-12-07T23:01:38.862Z,7.80
2018-12-07T23:04:07.261Z,7.80
2018-12-07T23:06:35.531Z,7.80
2018-12-07T23:09:05.964Z,7.70
2018-12-07T23:11:34.465Z,7.70
2018-12-07T23:14:02.868Z,7.60
2018-12-07T23:16:31.317Z,7.60
2018-12-07T23:18:59.487Z,7.70
2018-12-07T23:21:27.938Z,7.60
2018-12-07T23:23:56.132Z,7.70
2018-12-07T23:26:24.358Z,7.70
2018-12-07T23:28:52.594Z,7.70
2018-12-07T23:31:20.953Z,7.70
2018-12-07T23:33:49.149Z,7.60
2018-12-07T23:36:17.332Z,7.70
2018-12-07T23:38:45.528Z,7.60
2018-12-07T23:41:13.748Z,7.70
2018-12-07T23:43:41.981Z,7.60
2018-12-07T23:46:11.244Z,7.50
2018-12-07T23:48:39.598Z,7.50
2018-12-07T23:51:07.887Z,7.50
2018-12-07T23:53:36.167Z,7.60
2018-12-07T23:56:04.426Z,7.50
2018-12-07T23:58:32.611Z,7.40
